Time;durP1;ratioP1;P1;durP2;ratioP2;P2;SDS_P1;SDS_P2;PMS_P1;PMS_P2;Temp;Humidity;BMP_temperature;BMP_pressure;BME280_temperature;BME280_humidity;BME280_pressure;Samples;Min_cycle;Max_cycle;Signal;HPM_P1;HPM_P2
2021/06/18 00:00:57;;;;;;;15.03;13.53;;;;;;;;;;5057232;28;20634;-73
2021/06/18 00:03:22;;;;;;;17.25;14.90;;;;;;;;;;5063624;28;20540;-73
2021/06/18 00:05:48;;;;;;;17.85;14.98;;;;;;;;;;5061910;28;20302;-72
2021/06/18 00:08:13;;;;;;;15.70;14.20;;;;;;;;;;5059881;28;20183;-73
2021/06/18 00:10:39;;;;;;;15.40;13.77;;;;;;;;;;5060619;28;20678;-73
2021/06/18 00:13:04;;;;;;;15.02;13.40;;;;;;;;;;5060145;28;20581;-72
2021/06/18 00:15:29;;;;;;;17.88;15.57;;;;;;;;;;5057433;28;20189;-73
2021/06/18 00:17:54;;;;;;;17.02;15.25;;;;;;;;;;5059281;28;20264;-73
2021/06/18 00:20:20;;;;;;;17.75;15.90;;;;;;;;;;5056526;28;20199;-73
2021/06/18 00:22:45;;;;;;;16.83;15.18;;;;;;;;;;5058068;28;20618;-72
2021/06/18 00:25:11;;;;;;;20.50;18.20;;;;;;;;;;5065307;28;20189;-72
2021/06/18 00:27:36;;;;;;;18.67;16.83;;;;;;;;;;5051064;28;20189;-73
2021/06/18 00:30:03;;;;;;;20.58;16.45;;;;;;;;;;5062435;28;20177;-73
2021/06/18 00:32:28;;;;;;;20.63;18.52;;;;;;;;;;5059436;28;20196;-73
2021/06/18 00:34:53;;;;;;;19.88;16.88;;;;;;;;;;5059796;28;20189;-72
2021/06/18 00:37:18;;;;;;;22.17;18.35;;;;;;;;;;5064876;28;20205;-73
2021/06/18 00:39:43;;;;;;;23.10;18.10;;;;;;;;;;5058996;28;20189;-73
2021/06/18 00:42:09;;;;;;;20.98;18.75;;;;;;;;;;5062057;28;20184;-72
2021/06/18 00:44:34;;;;;;;20.55;18.45;;;;;;;;;;5061927;28;20216;-72
2021/06/18 00:47:00;;;;;;;19.23;17.17;;;;;;;;;;5065004;28;20177;-73
2021/06/18 00:49:25;;;;;;;19.58;17.55;;;;;;;;;;5054415;28;20257;-73
2021/06/18 00:51:51;;;;;;;19.63;15.90;;;;;;;;;;5070421;28;20684;-73
2021/06/18 00:54:27;;;;;;;19.50;17.55;;;;;;;;;;5059002;28;20189;-72
2021/06/18 00:56:53;;;;;;;23.77;18.67;;;;;;;;;;5061065;28;20187;-73
2021/06/18 00:59:19;;;;;;;19.52;17.50;;;;;;;;;;5060031;28;20185;-73
2021/06/18 01:01:44;;;;;;;21.40;18.92;;;;;;;;;;5059758;28;20243;-73
2021/06/18 01:04:09;;;;;;;21.27;16.90;;;;;;;;;;5060260;28;20231;-74
2021/06/18 01:06:35;;;;;;;19.75;17.75;;;;;;;;;;5058811;28;20603;-73
2021/06/18 01:09:09;;;;;;;22.55;18.10;;;;;;;;;;5058752;28;20640;-73
2021/06/18 01:11:38;;;;;;;20.70;18.50;;;;;;;;;;5049548;28;20222;-74
2021/06/18 01:14:12;;;;;;;19.63;17.58;;;;;;;;;;5050278;28;20200;-73
2021/06/18 01:16:39;;;;;;;21.25;17.50;;;;;;;;;;5051272;28;20605;-73
2021/06/18 01:19:23;;;;;;;21.33;18.55;;;;;;;;;;5063740;28;20187;-73
2021/06/18 01:21:58;;;;;;;17.23;15.60;;;;;;;;;;5074814;28;20184;-72
2021/06/18 01:24:42;;;;;;;18.60;16.77;;;;;;;;;;5076954;28;20228;-73
2021/06/18 01:27:30;;;;;;;21.67;19.27;;;;;;;;;;5074872;28;20268;-73
2021/06/18 01:29:58;;;;;;;21.48;19.30;;;;;;;;;;5068761;28;20196;-73
2021/06/18 01:32:38;;;;;;;20.08;17.85;;;;;;;;;;5074439;28;20192;-73
2021/06/18 01:35:05;;;;;;;17.48;15.73;;;;;;;;;;5076507;28;20206;-73
2021/06/18 01:37:31;;;;;;;19.67;17.05;;;;;;;;;;5074533;28;20551;-73
2021/06/18 01:39:59;;;;;;;19.10;17.02;;;;;;;;;;5061377;28;20237;-73
2021/06/18 01:42:25;;;;;;;18.35;16.60;;;;;;;;;;5066167;28;20245;-73
2021/06/18 01:44:51;;;;;;;21.20;19.05;;;;;;;;;;5073796;28;20209;-73
2021/06/18 01:47:17;;;;;;;18.92;16.92;;;;;;;;;;5070552;28;20248;-73
2021/06/18 01:49:43;;;;;;;18.60;16.33;;;;;;;;;;5067488;28;20186;-73
2021/06/18 01:52:10;;;;;;;16.92;15.23;;;;;;;;;;5068324;28;20310;-73
2021/06/18 01:54:36;;;;;;;17.48;15.32;;;;;;;;;;5055606;28;20224;-73
2021/06/18 01:57:01;;;;;;;21.13;18.92;;;;;;;;;;5043291;28;20668;-73
2021/06/18 01:59:29;;;;;;;16.50;14.57;;;;;;;;;;5056546;28;20181;-73
2021/06/18 02:01:54;;;;;;;17.77;16.08;;;;;;;;;;5055012;28;20188;-73
2021/06/18 02:04:20;;;;;;;19.40;15.80;;;;;;;;;;5052104;28;20578;-73
2021/06/18 02:06:46;;;;;;;17.35;15.68;;;;;;;;;;5050115;28;20189;-73
2021/06/18 02:09:13;;;;;;;20.40;16.50;;;;;;;;;;5050139;28;20185;-73
2021/06/18 02:11:39;;;;;;;20.08;16.88;;;;;;;;;;5049831;28;21054;-73
2021/06/18 02:14:06;;;;;;;19.08;17.17;;;;;;;;;;5052593;28;20204;-73
2021/06/18 02:16:32;;;;;;;18.40;16.13;;;;;;;;;;5053589;28;20193;-74
2021/06/18 02:18:58;;;;;;;18.92;17.08;;;;;;;;;;5055951;28;20912;-73
2021/06/18 02:21:24;;;;;;;19.40;17.42;;;;;;;;;;5051978;28;20174;-74
2021/06/18 02:23:50;;;;;;;20.17;18.27;;;;;;;;;;5049511;28;20966;-73
2021/06/18 02:26:16;;;;;;;21.20;19.05;;;;;;;;;;5055686;28;20199;-73
2021/06/18 02:28:41;;;;;;;23.40;21.08;;;;;;;;;;5053869;28;20184;-73
2021/06/18 02:31:07;;;;;;;20.85;18.83;;;;;;;;;;5051518;28;20671;-73
2021/06/18 02:33:32;;;;;;;22.42;18.73;;;;;;;;;;5054070;28;20487;-73
2021/06/18 02:35:57;;;;;;;21.55;19.35;;;;;;;;;;5064195;28;20235;-73
2021/06/18 02:38:23;;;;;;;20.98;18.90;;;;;;;;;;5061890;28;20179;-73
2021/06/18 02:40:48;;;;;;;21.55;19.40;;;;;;;;;;5058630;28;20219;-73
2021/06/18 02:43:13;;;;;;;22.97;19.97;;;;;;;;;;5053377;28;20200;-73
2021/06/18 02:45:39;;;;;;;23.25;20.83;;;;;;;;;;5059578;28;20434;-73
2021/06/18 02:48:15;;;;;;;22.30;19.95;;;;;;;;;;5053328;28;21676;-73
2021/06/18 02:50:59;;;;;;;21.55;19.30;;;;;;;;;;5060320;28;21099;-73
2021/06/18 02:53:30;;;;;;;21.10;19.10;;;;;;;;;;5052711;28;20197;-73
2021/06/18 02:56:14;;;;;;;20.73;18.67;;;;;;;;;;5063960;28;20540;-73
2021/06/18 02:59:06;;;;;;;25.95;20.67;;;;;;;;;;5067835;28;20262;-73
2021/06/18 03:01:35;;;;;;;23.38;20.88;;;;;;;;;;5059550;28;20190;-72
2021/06/18 03:04:01;;;;;;;24.13;20.90;;;;;;;;;;5051930;28;20717;-72
2021/06/18 03:06:26;;;;;;;22.60;20.42;;;;;;;;;;5061909;28;20187;-72
2021/06/18 03:08:55;;;;;;;24.77;22.00;;;;;;;;;;5053431;28;20286;-73
2021/06/18 03:11:21;;;;;;;25.13;22.52;;;;;;;;;;5056200;28;20576;-73
2021/06/18 03:13:48;;;;;;;26.40;23.80;;;;;;;;;;5053059;28;20204;-73
2021/06/18 03:16:14;;;;;;;26.77;24.17;;;;;;;;;;5051281;28;20607;-74
2021/06/18 03:18:40;;;;;;;26.25;23.48;;;;;;;;;;5050185;28;20184;-73
2021/06/18 03:21:07;;;;;;;29.98;24.95;;;;;;;;;;5054916;28;20182;-73
2021/06/18 03:23:33;;;;;;;29.17;25.92;;;;;;;;;;5055441;28;20201;-73
2021/06/18 03:25:59;;;;;;;27.13;24.33;;;;;;;;;;5050635;28;20835;-72
2021/06/18 03:28:25;;;;;;;27.58;25.02;;;;;;;;;;5055450;28;20236;-73
2021/06/18 03:30:51;;;;;;;28.08;24.35;;;;;;;;;;5056910;28;20205;-73
2021/06/18 03:33:17;;;;;;;29.75;26.85;;;;;;;;;;5052304;28;20283;-73
2021/06/18 03:35:43;;;;;;;30.15;27.02;;;;;;;;;;5056025;28;20176;-73
2021/06/18 03:38:09;;;;;;;29.20;26.08;;;;;;;;;;5059149;28;20541;-72
2021/06/18 03:40:36;;;;;;;27.30;24.58;;;;;;;;;;5055931;28;20203;-73
2021/06/18 03:43:01;;;;;;;30.23;27.17;;;;;;;;;;5051816;28;20189;-74
2021/06/18 03:45:27;;;;;;;29.45;26.42;;;;;;;;;;5054196;28;20195;-74
2021/06/18 03:47:52;;;;;;;29.13;26.13;;;;;;;;;;5052307;28;20181;-74
2021/06/18 03:50:19;;;;;;;30.60;27.33;;;;;;;;;;5051817;28;20302;-73
2021/06/18 03:52:45;;;;;;;29.73;25.88;;;;;;;;;;5070252;28;20681;-75
2021/06/18 03:55:10;;;;;;;30.25;27.02;;;;;;;;;;5067518;28;20205;-74
2021/06/18 03:57:36;;;;;;;31.35;28.02;;;;;;;;;;5064041;28;20185;-74
2021/06/18 04:00:03;;;;;;;31.55;28.13;;;;;;;;;;5053929;28;20685;-74
2021/06/18 04:02:28;;;;;;;30.73;27.60;;;;;;;;;;5053845;28;20180;-74
2021/06/18 04:04:54;;;;;;;29.38;26.55;;;;;;;;;;5061153;28;20459;-74
2021/06/18 04:07:20;;;;;;;31.77;28.58;;;;;;;;;;5063187;28;20268;-74
2021/06/18 04:09:45;;;;;;;33.78;30.27;;;;;;;;;;5062055;28;20666;-74
2021/06/18 04:12:11;;;;;;;36.28;32.45;;;;;;;;;;5057650;28;20212;-73
2021/06/18 04:14:36;;;;;;;36.20;32.33;;;;;;;;;;5054825;28;20250;-73
2021/06/18 04:17:05;;;;;;;35.22;31.50;;;;;;;;;;5071342;28;20733;-73
2021/06/18 04:19:31;;;;;;;36.00;32.38;;;;;;;;;;5068073;28;20173;-76
2021/06/18 04:21:56;;;;;;;34.45;31.17;;;;;;;;;;5058632;28;20673;-73
2021/06/18 04:24:21;;;;;;;34.97;31.67;;;;;;;;;;5057102;28;20196;-76
2021/06/18 04:26:47;;;;;;;34.63;30.80;;;;;;;;;;5058584;28;20229;-73
2021/06/18 04:29:12;;;;;;;36.65;32.80;;;;;;;;;;5053632;28;20191;-74
2021/06/18 04:31:37;;;;;;;36.42;32.72;;;;;;;;;;5066240;28;20211;-74
2021/06/18 04:34:07;;;;;;;38.42;34.45;;;;;;;;;;5066876;28;20568;-74
2021/06/18 04:36:32;;;;;;;37.55;33.67;;;;;;;;;;5065452;28;20173;-75
2021/06/18 04:38:58;;;;;;;40.35;36.25;;;;;;;;;;5067116;28;20192;-75
2021/06/18 04:41:24;;;;;;;39.95;35.80;;;;;;;;;;5059828;28;20181;-74
2021/06/18 04:43:49;;;;;;;41.28;36.85;;;;;;;;;;5043197;28;20219;-75
2021/06/18 04:46:14;;;;;;;43.45;39.05;;;;;;;;;;5054558;28;20196;-75
2021/06/18 04:48:40;;;;;;;41.75;37.65;;;;;;;;;;5052440;28;20203;-75
2021/06/18 04:51:05;;;;;;;44.28;39.58;;;;;;;;;;5056816;28;20200;-74
2021/06/18 04:53:30;;;;;;;43.10;38.47;;;;;;;;;;5057458;28;21165;-75
2021/06/18 04:55:56;;;;;;;45.10;40.30;;;;;;;;;;5061926;28;20263;-75
2021/06/18 04:58:21;;;;;;;44.33;39.75;;;;;;;;;;5060032;28;20169;-74
2021/06/18 05:00:46;;;;;;;47.38;42.38;;;;;;;;;;5059274;28;20534;-75
2021/06/18 05:03:11;;;;;;;47.10;41.80;;;;;;;;;;5054358;28;20193;-75
2021/06/18 05:05:37;;;;;;;49.00;43.60;;;;;;;;;;5062644;28;20571;-74
2021/06/18 05:08:02;;;;;;;58.35;49.25;;;;;;;;;;5056803;28;20184;-75
2021/06/18 05:10:27;;;;;;;54.00;47.65;;;;;;;;;;5062903;28;20586;-75
2021/06/18 05:12:53;;;;;;;57.35;51.10;;;;;;;;;;5062447;28;20254;-74
2021/06/18 05:15:18;;;;;;;57.95;51.25;;;;;;;;;;5062334;28;20215;-75
2021/06/18 05:17:43;;;;;;;57.20;51.05;;;;;;;;;;5054003;28;20223;-75
2021/06/18 05:20:09;;;;;;;54.65;48.65;;;;;;;;;;5058522;28;20190;-75
2021/06/18 05:22:34;;;;;;;50.90;45.25;;;;;;;;;;5059525;28;20180;-74
2021/06/18 05:25:00;;;;;;;50.90;45.65;;;;;;;;;;5049030;28;20212;-74
2021/06/18 05:27:25;;;;;;;47.75;42.67;;;;;;;;;;5048593;28;20174;-74
2021/06/18 05:29:50;;;;;;;47.10;41.13;;;;;;;;;;5049147;28;20223;-74
2021/06/18 05:32:17;;;;;;;42.20;37.95;;;;;;;;;;5056547;28;20208;-74
2021/06/18 05:34:42;;;;;;;41.03;36.88;;;;;;;;;;5064077;28;20563;-74
2021/06/18 05:37:08;;;;;;;41.97;37.58;;;;;;;;;;5067142;28;20185;-74
2021/06/18 05:39:33;;;;;;;41.03;36.85;;;;;;;;;;5063395;28;20247;-74
2021/06/18 05:41:58;;;;;;;41.37;37.17;;;;;;;;;;5063561;28;20227;-74
2021/06/18 05:44:23;;;;;;;41.80;37.63;;;;;;;;;;5059802;28;20828;-73
2021/06/18 05:46:48;;;;;;;40.88;36.50;;;;;;;;;;5058163;28;20184;-73
2021/06/18 05:49:13;;;;;;;42.75;38.15;;;;;;;;;;5067051;28;20212;-74
2021/06/18 05:51:39;;;;;;;43.58;38.65;;;;;;;;;;5060298;28;20254;-74
2021/06/18 05:54:04;;;;;;;41.87;37.47;;;;;;;;;;5055016;28;20197;-74
2021/06/18 05:56:29;;;;;;;43.90;39.58;;;;;;;;;;5056731;28;22314;-73
2021/06/18 05:58:54;;;;;;;43.83;39.45;;;;;;;;;;5065571;28;20168;-74
2021/06/18 06:01:20;;;;;;;43.17;38.90;;;;;;;;;;5062628;28;20678;-73
2021/06/18 06:03:45;;;;;;;41.38;37.17;;;;;;;;;;5055995;28;20547;-72
2021/06/18 06:06:10;;;;;;;43.38;39.08;;;;;;;;;;5056728;28;20189;-72
2021/06/18 06:08:36;;;;;;;43.58;39.20;;;;;;;;;;5052370;28;20217;-73
2021/06/18 06:11:01;;;;;;;42.88;38.58;;;;;;;;;;5057924;28;20240;-73
2021/06/18 06:13:26;;;;;;;38.63;34.88;;;;;;;;;;5064379;28;20205;-72
2021/06/18 06:15:52;;;;;;;40.15;36.15;;;;;;;;;;5065402;28;20223;-73
2021/06/18 06:18:17;;;;;;;35.97;32.22;;;;;;;;;;5064971;28;20178;-72
2021/06/18 06:20:44;;;;;;;35.40;31.95;;;;;;;;;;5071655;28;20203;-71
2021/06/18 06:23:10;;;;;;;33.78;30.20;;;;;;;;;;5076713;28;20263;-72
2021/06/18 06:25:35;;;;;;;29.73;26.92;;;;;;;;;;5080034;28;20192;-72
2021/06/18 06:28:00;;;;;;;28.58;25.92;;;;;;;;;;5082311;28;20201;-70
2021/06/18 06:30:25;;;;;;;27.13;24.47;;;;;;;;;;5090799;28;20180;-72
2021/06/18 06:32:50;;;;;;;24.42;22.02;;;;;;;;;;5096285;28;20529;-72
2021/06/18 06:35:16;;;;;;;25.02;22.73;;;;;;;;;;5094582;28;20177;-72
2021/06/18 06:37:42;;;;;;;25.85;23.45;;;;;;;;;;5095897;28;20174;-72
2021/06/18 06:40:08;;;;;;;25.38;23.08;;;;;;;;;;5099022;28;20192;-72
2021/06/18 06:42:33;;;;;;;25.77;23.30;;;;;;;;;;5094349;28;20177;-72
2021/06/18 06:44:58;;;;;;;26.35;23.85;;;;;;;;;;5088971;28;20209;-73
2021/06/18 06:47:23;;;;;;;26.73;24.23;;;;;;;;;;5075791;28;20172;-72
2021/06/18 06:49:49;;;;;;;25.17;22.67;;;;;;;;;;5077170;28;20210;-72
2021/06/18 06:52:14;;;;;;;26.20;23.48;;;;;;;;;;5068782;28;20559;-73
2021/06/18 06:54:39;;;;;;;23.48;21.27;;;;;;;;;;5074088;28;20196;-73
2021/06/18 06:57:05;;;;;;;24.38;22.10;;;;;;;;;;5069965;28;20207;-73
2021/06/18 06:59:30;;;;;;;24.17;21.85;;;;;;;;;;5071491;28;20196;-72
2021/06/18 07:01:55;;;;;;;23.77;21.45;;;;;;;;;;5063221;28;20173;-72
2021/06/18 07:04:20;;;;;;;25.67;23.05;;;;;;;;;;5055510;28;20209;-72
2021/06/18 07:06:46;;;;;;;22.85;20.58;;;;;;;;;;5069796;28;20193;-74
2021/06/18 07:09:14;;;;;;;21.00;19.00;;;;;;;;;;5060534;28;20180;-73
2021/06/18 07:11:39;;;;;;;20.88;18.92;;;;;;;;;;5065461;28;20200;-72
2021/06/18 07:14:04;;;;;;;21.00;19.10;;;;;;;;;;5052701;28;20245;-72
2021/06/18 07:16:29;;;;;;;21.40;19.35;;;;;;;;;;5055176;28;20449;-71
2021/06/18 07:18:55;;;;;;;19.30;17.50;;;;;;;;;;5054768;28;20556;-69
2021/06/18 07:21:20;;;;;;;19.92;18.02;;;;;;;;;;5059154;28;20208;-73
2021/06/18 07:23:45;;;;;;;19.35;17.40;;;;;;;;;;5069497;28;20213;-72
2021/06/18 07:26:10;;;;;;;18.70;16.90;;;;;;;;;;5073182;28;20184;-72
2021/06/18 07:28:36;;;;;;;20.27;18.37;;;;;;;;;;5069877;28;20192;-72
2021/06/18 07:31:01;;;;;;;21.08;19.17;;;;;;;;;;5068406;28;20556;-72
2021/06/18 07:33:26;;;;;;;19.40;17.70;;;;;;;;;;5073289;28;20252;-73
2021/06/18 07:35:51;;;;;;;21.23;19.30;;;;;;;;;;5061136;28;20228;-72
2021/06/18 07:38:16;;;;;;;20.80;18.90;;;;;;;;;;5068789;28;20182;-72
2021/06/18 07:40:42;;;;;;;22.77;20.57;;;;;;;;;;5066907;28;20450;-72
2021/06/18 07:43:07;;;;;;;22.42;20.23;;;;;;;;;;5064010;28;20437;-72
2021/06/18 07:45:32;;;;;;;21.63;19.65;;;;;;;;;;5064926;28;20542;-72
2021/06/18 07:47:57;;;;;;;22.88;20.73;;;;;;;;;;5070365;28;20611;-73
2021/06/18 07:50:23;;;;;;;22.73;20.73;;;;;;;;;;5066573;28;20181;-73
2021/06/18 07:52:49;;;;;;;22.33;20.33;;;;;;;;;;5065353;28;20591;-73
2021/06/18 07:55:18;;;;;;;25.08;22.58;;;;;;;;;;5061558;28;20670;-73
2021/06/18 07:57:44;;;;;;;22.35;20.23;;;;;;;;;;5061379;28;20237;-72
2021/06/18 08:00:10;;;;;;;21.83;19.75;;;;;;;;;;5061967;28;20254;-76
2021/06/18 08:02:35;;;;;;;21.25;19.15;;;;;;;;;;5056719;28;20579;-73
2021/06/18 08:05:00;;;;;;;21.80;19.63;;;;;;;;;;5055501;28;20275;-73
2021/06/18 08:07:26;;;;;;;21.10;19.05;;;;;;;;;;5065858;28;20173;-73
2021/06/18 08:09:51;;;;;;;20.77;18.73;;;;;;;;;;5068056;28;20484;-74
2021/06/18 08:12:17;;;;;;;18.98;17.38;;;;;;;;;;5060809;28;20919;-74
2021/06/18 08:14:42;;;;;;;19.48;17.65;;;;;;;;;;5066299;28;20201;-73
2021/06/18 08:17:07;;;;;;;18.75;16.85;;;;;;;;;;5073676;28;20333;-72
2021/06/18 08:19:32;;;;;;;17.55;15.82;;;;;;;;;;5067816;28;20173;-73
2021/06/18 08:21:58;;;;;;;17.38;15.68;;;;;;;;;;5068636;28;20181;-73
2021/06/18 08:24:23;;;;;;;16.98;15.48;;;;;;;;;;5067513;28;20200;-72
2021/06/18 08:26:49;;;;;;;17.25;15.27;;;;;;;;;;5073411;28;20177;-73
2021/06/18 08:29:15;;;;;;;17.33;15.60;;;;;;;;;;5068570;28;20216;-72
2021/06/18 08:31:40;;;;;;;16.42;14.82;;;;;;;;;;5067919;28;20294;-73
2021/06/18 08:34:06;;;;;;;17.00;15.40;;;;;;;;;;5056927;28;20228;-73
2021/06/18 08:36:31;;;;;;;17.40;15.77;;;;;;;;;;5069046;28;20669;-74
2021/06/18 08:38:57;;;;;;;18.25;16.35;;;;;;;;;;5064972;28;20177;-70
2021/06/18 08:41:22;;;;;;;16.52;14.82;;;;;;;;;;5067069;28;20631;-72
2021/06/18 08:43:48;;;;;;;15.63;13.75;;;;;;;;;;5063507;28;20209;-71
2021/06/18 08:46:13;;;;;;;15.50;14.10;;;;;;;;;;5062191;28;20185;-74
2021/06/18 08:48:39;;;;;;;15.68;14.02;;;;;;;;;;5061322;28;20704;-72
2021/06/18 08:51:04;;;;;;;15.23;13.50;;;;;;;;;;5058753;28;20599;-72
2021/06/18 08:53:32;;;;;;;18.88;13.15;;;;;;;;;;5066488;28;20559;-71
2021/06/18 08:55:57;;;;;;;13.68;12.38;;;;;;;;;;5059631;28;20246;-70
2021/06/18 08:58:23;;;;;;;14.00;12.67;;;;;;;;;;5064262;28;20222;-72
2021/06/18 09:00:48;;;;;;;12.88;11.73;;;;;;;;;;5071053;28;21008;-72
2021/06/18 09:03:32;;;;;;;14.77;13.45;;;;;;;;;;5065762;28;20199;-73
2021/06/18 09:05:58;;;;;;;11.75;10.60;;;;;;;;;;5062619;28;20185;-73
2021/06/18 09:08:24;;;;;;;12.38;11.15;;;;;;;;;;5053594;28;20196;-72
2021/06/18 09:10:51;;;;;;;11.87;10.47;;;;;;;;;;5066660;28;20750;-72
2021/06/18 09:13:17;;;;;;;12.10;10.85;;;;;;;;;;5067174;28;20465;-72
2021/06/18 09:16:03;;;;;;;9.75;8.95;;;;;;;;;;5068758;28;20309;-71
2021/06/18 09:18:41;;;;;;;10.82;9.82;;;;;;;;;;5067323;28;20188;-73
2021/06/18 09:21:14;;;;;;;11.55;9.93;;;;;;;;;;5057137;28;20177;-72
2021/06/18 09:23:43;;;;;;;9.68;8.85;;;;;;;;;;5057032;28;20279;-72
2021/06/18 09:26:20;;;;;;;8.98;8.23;;;;;;;;;;5062092;28;20172;-71
2021/06/18 09:28:54;;;;;;;9.27;8.40;;;;;;;;;;5063627;28;20172;-72
2021/06/18 09:31:22;;;;;;;8.48;7.68;;;;;;;;;;5063494;28;20203;-72
2021/06/18 09:33:47;;;;;;;8.40;7.60;;;;;;;;;;5065339;28;20211;-72
2021/06/18 09:36:12;;;;;;;7.87;7.10;;;;;;;;;;5061027;28;20185;-71
2021/06/18 09:38:39;;;;;;;7.22;6.55;;;;;;;;;;5069896;28;20427;-73
2021/06/18 09:41:04;;;;;;;7.88;7.28;;;;;;;;;;5071473;28;20242;-72
2021/06/18 09:43:41;;;;;;;8.50;7.70;;;;;;;;;;5071030;28;20719;-72
2021/06/18 09:46:06;;;;;;;7.80;7.20;;;;;;;;;;5068508;28;20421;-72
2021/06/18 09:48:34;;;;;;;9.03;8.17;;;;;;;;;;5068319;28;20812;-71
2021/06/18 09:51:00;;;;;;;9.07;8.27;;;;;;;;;;5067940;28;20197;-73
2021/06/18 09:53:26;;;;;;;9.35;8.45;;;;;;;;;;5061443;28;20317;-72
2021/06/18 09:56:13;;;;;;;9.40;8.32;;;;;;;;;;5062707;28;20229;-72
2021/06/18 09:58:40;;;;;;;9.90;9.05;;;;;;;;;;5063569;28;20674;-72
2021/06/18 10:01:14;;;;;;;9.68;8.93;;;;;;;;;;5065795;28;20195;-72
2021/06/18 10:03:57;;;;;;;10.65;9.85;;;;;;;;;;5070220;28;20212;-73
2021/06/18 10:06:23;;;;;;;10.50;9.60;;;;;;;;;;5063950;28;20254;-73
2021/06/18 10:08:48;;;;;;;10.02;9.13;;;;;;;;;;5063246;28;20639;-72
2021/06/18 10:11:13;;;;;;;8.30;7.53;;;;;;;;;;5069368;28;20324;-73
2021/06/18 10:13:39;;;;;;;8.68;7.88;;;;;;;;;;5057528;28;20747;-73
2021/06/18 10:16:05;;;;;;;9.75;8.75;;;;;;;;;;5056957;28;20212;-73
2021/06/18 10:18:30;;;;;;;10.73;9.82;;;;;;;;;;5063130;28;20640;-73
2021/06/18 10:20:55;;;;;;;11.07;9.50;;;;;;;;;;5064890;28;20185;-72
2021/06/18 10:23:24;;;;;;;11.53;10.50;;;;;;;;;;5064571;28;20202;-72
2021/06/18 10:25:52;;;;;;;11.45;10.43;;;;;;;;;;5069177;28;20272;-73
2021/06/18 10:28:19;;;;;;;14.02;12.65;;;;;;;;;;5062621;28;20190;-69
2021/06/18 10:30:44;;;;;;;12.30;11.27;;;;;;;;;;5067891;28;20599;-72
2021/06/18 10:33:28;;;;;;;14.23;12.73;;;;;;;;;;5068936;28;20206;-71
2021/06/18 10:36:04;;;;;;;15.75;14.05;;;;;;;;;;5071372;28;20475;-72
2021/06/18 10:38:31;;;;;;;14.85;13.20;;;;;;;;;;5068648;28;20173;-73
2021/06/18 10:40:58;;;;;;;14.90;13.70;;;;;;;;;;5070023;28;20192;-73
2021/06/18 10:43:34;;;;;;;16.63;15.13;;;;;;;;;;5067600;28;20242;-73
2021/06/18 10:46:04;;;;;;;18.88;17.23;;;;;;;;;;5063476;28;20200;-72
2021/06/18 10:48:41;;;;;;;16.08;14.63;;;;;;;;;;5064405;28;20181;-74
2021/06/18 10:51:26;;;;;;;18.40;16.73;;;;;;;;;;5069703;28;20188;-73
2021/06/18 10:53:55;;;;;;;17.98;16.60;;;;;;;;;;5073390;28;20215;-72
2021/06/18 10:56:40;;;;;;;20.73;19.02;;;;;;;;;;5062841;28;20185;-73
2021/06/18 10:59:08;;;;;;;26.73;21.42;;;;;;;;;;5062602;28;20657;-73
2021/06/18 11:01:35;;;;;;;19.98;18.38;;;;;;;;;;5072549;28;20211;-70
2021/06/18 11:04:00;;;;;;;18.90;17.23;;;;;;;;;;5086712;28;20220;-73
2021/06/18 11:06:45;;;;;;;20.45;18.67;;;;;;;;;;5095581;28;20694;-73
2021/06/18 11:09:10;;;;;;;22.85;20.95;;;;;;;;;;5094836;28;20176;-71
2021/06/18 11:11:35;;;;;;;22.92;20.70;;;;;;;;;;5088075;28;20192;-72
2021/06/18 11:14:05;;;;;;;19.97;18.23;;;;;;;;;;5095193;28;20219;-72
2021/06/18 11:16:33;;;;;;;21.73;19.80;;;;;;;;;;5093878;28;20445;-73
2021/06/18 11:19:17;;;;;;;24.30;22.20;;;;;;;;;;5091542;28;20184;-74
2021/06/18 11:21:42;;;;;;;20.23;18.58;;;;;;;;;;5095628;28;20179;-73
2021/06/18 11:24:08;;;;;;;20.17;18.37;;;;;;;;;;5077946;28;20203;-72
2021/06/18 11:26:33;;;;;;;18.58;16.88;;;;;;;;;;5072568;28;20428;-73
2021/06/18 11:28:58;;;;;;;21.30;19.40;;;;;;;;;;5066145;28;20176;-71
2021/06/18 11:31:37;;;;;;;22.00;19.83;;;;;;;;;;5067811;28;20461;-73
2021/06/18 11:34:03;;;;;;;19.35;17.60;;;;;;;;;;5061759;28;20476;-74
2021/06/18 11:36:37;;;;;;;19.77;18.15;;;;;;;;;;5072132;28;20770;-73
2021/06/18 11:39:08;;;;;;;19.85;18.13;;;;;;;;;;5072400;28;20268;-72
2021/06/18 11:41:39;;;;;;;20.13;18.25;;;;;;;;;;5067616;28;20189;-72
2021/06/18 11:44:05;;;;;;;20.58;18.70;;;;;;;;;;5069692;28;20196;-73
2021/06/18 11:46:32;;;;;;;18.83;17.08;;;;;;;;;;5069665;28;20179;-72
2021/06/18 11:49:07;;;;;;;22.50;20.38;;;;;;;;;;5070883;28;20177;-72
2021/06/18 11:51:33;;;;;;;21.08;19.10;;;;;;;;;;5059399;28;21511;-72
2021/06/18 11:53:58;;;;;;;16.80;15.20;;;;;;;;;;5070582;28;20746;-72
2021/06/18 11:56:27;;;;;;;17.37;15.70;;;;;;;;;;5067951;28;20175;-72
2021/06/18 11:58:52;;;;;;;16.42;15.07;;;;;;;;;;5072670;28;20182;-73
2021/06/18 12:01:18;;;;;;;17.58;15.95;;;;;;;;;;5074191;28;20184;-72
2021/06/18 12:03:47;;;;;;;18.02;16.35;;;;;;;;;;5071040;28;20203;-73
2021/06/18 12:06:14;;;;;;;17.30;15.80;;;;;;;;;;5076065;28;20184;-73
2021/06/18 12:08:39;;;;;;;19.15;17.25;;;;;;;;;;5071992;28;20555;-71
2021/06/18 12:11:14;;;;;;;18.20;16.50;;;;;;;;;;5072765;28;20197;-73
2021/06/18 12:13:48;;;;;;;15.32;13.95;;;;;;;;;;5070825;28;20613;-73
2021/06/18 12:16:13;;;;;;;16.63;15.13;;;;;;;;;;5070658;28;20171;-73
2021/06/18 12:18:39;;;;;;;16.10;12.67;;;;;;;;;;5071354;28;20180;-73
2021/06/18 12:21:04;;;;;;;14.43;11.60;;;;;;;;;;5070718;28;20188;-73
2021/06/18 12:23:29;;;;;;;10.43;9.52;;;;;;;;;;5070547;28;20282;-74
2021/06/18 12:25:54;;;;;;;11.73;10.57;;;;;;;;;;5070672;28;20645;-74
2021/06/18 12:28:19;;;;;;;13.20;12.13;;;;;;;;;;5071889;28;20231;-73
2021/06/18 12:30:45;;;;;;;10.93;9.67;;;;;;;;;;5076808;28;20184;-74
2021/06/18 12:33:10;;;;;;;10.35;9.38;;;;;;;;;;5063018;28;20604;-73
2021/06/18 12:35:38;;;;;;;11.57;9.70;;;;;;;;;;5064231;28;20658;-73
2021/06/18 12:38:04;;;;;;;10.43;9.48;;;;;;;;;;5063919;28;20906;-74
2021/06/18 12:40:31;;;;;;;10.05;9.07;;;;;;;;;;5067246;28;20325;-74
2021/06/18 12:42:57;;;;;;;12.85;11.65;;;;;;;;;;5065689;28;20575;-74
2021/06/18 12:45:23;;;;;;;11.70;10.70;;;;;;;;;;5069729;28;20169;-74
2021/06/18 12:47:49;;;;;;;12.43;10.73;;;;;;;;;;5066799;28;20593;-74
2021/06/18 12:50:21;;;;;;;10.60;9.60;;;;;;;;;;5065637;28;20572;-74
2021/06/18 12:52:50;;;;;;;15.18;9.98;;;;;;;;;;5067368;28;20197;-74
2021/06/18 12:55:15;;;;;;;11.32;9.50;;;;;;;;;;5067329;28;20259;-74
2021/06/18 12:57:40;;;;;;;9.27;8.20;;;;;;;;;;5075127;28;20689;-73
2021/06/18 13:00:10;;;;;;;11.90;9.37;;;;;;;;;;5065828;28;20167;-74
2021/06/18 13:02:36;;;;;;;11.77;9.85;;;;;;;;;;5071866;28;20278;-73
2021/06/18 13:05:14;;;;;;;10.82;8.90;;;;;;;;;;5069640;28;20211;-73
2021/06/18 13:07:40;;;;;;;15.20;10.68;;;;;;;;;;5072850;28;20333;-72
2021/06/18 13:10:05;;;;;;;10.00;8.20;;;;;;;;;;5070831;28;20226;-72
2021/06/18 13:12:30;;;;;;;13.88;10.32;;;;;;;;;;5068040;28;20249;-73
2021/06/18 13:14:58;;;;;;;9.10;7.73;;;;;;;;;;5065783;28;20196;-73
2021/06/18 13:17:23;;;;;;;10.57;8.80;;;;;;;;;;5054859;28;20198;-73
2021/06/18 13:19:50;;;;;;;8.43;7.35;;;;;;;;;;5065733;28;20255;-73
2021/06/18 13:22:26;;;;;;;9.10;8.20;;;;;;;;;;5068071;28;20190;-72
2021/06/18 13:24:54;;;;;;;10.43;9.35;;;;;;;;;;5065660;28;20196;-74
2021/06/18 13:27:20;;;;;;;9.57;8.65;;;;;;;;;;5071069;28;20276;-73
2021/06/18 13:29:59;;;;;;;10.13;7.97;;;;;;;;;;5061790;28;20271;-73
2021/06/18 13:32:26;;;;;;;9.45;7.90;;;;;;;;;;5067573;28;20244;-73
2021/06/18 13:34:54;;;;;;;14.63;11.25;;;;;;;;;;5063641;28;20201;-73
2021/06/18 13:37:29;;;;;;;11.50;8.90;;;;;;;;;;5062893;28;20230;-73
2021/06/18 13:39:57;;;;;;;11.48;8.18;;;;;;;;;;5066799;28;20284;-73
2021/06/18 13:42:22;;;;;;;11.02;9.90;;;;;;;;;;5069202;28;20176;-73
2021/06/18 13:44:47;;;;;;;8.33;7.60;;;;;;;;;;5068442;28;20255;-71
2021/06/18 13:47:12;;;;;;;8.73;7.47;;;;;;;;;;5069748;28;20183;-72
2021/06/18 13:49:38;;;;;;;9.80;8.63;;;;;;;;;;5071687;28;20199;-73
2021/06/18 13:52:03;;;;;;;10.27;8.90;;;;;;;;;;5068465;28;20451;-72
2021/06/18 13:54:28;;;;;;;9.03;8.13;;;;;;;;;;5064571;28;20717;-72
2021/06/18 13:56:53;;;;;;;9.43;8.23;;;;;;;;;;5066675;28;20412;-72
2021/06/18 13:59:20;;;;;;;10.85;9.20;;;;;;;;;;5072143;28;20642;-72
2021/06/18 14:01:46;;;;;;;10.65;9.07;;;;;;;;;;5055482;28;20180;-73
2021/06/18 14:04:11;;;;;;;9.17;7.43;;;;;;;;;;5055535;28;20694;-72
2021/06/18 14:06:36;;;;;;;10.40;8.63;;;;;;;;;;5067897;28;20445;-72
2021/06/18 14:09:03;;;;;;;9.77;8.53;;;;;;;;;;5066329;28;20185;-73
2021/06/18 14:11:28;;;;;;;10.02;8.20;;;;;;;;;;5058474;28;21028;-73
2021/06/18 14:13:59;;;;;;;10.83;7.63;;;;;;;;;;5061874;28;20192;-73
2021/06/18 14:16:36;;;;;;;13.32;9.32;;;;;;;;;;5056828;28;20431;-73
2021/06/18 14:19:02;;;;;;;11.77;8.20;;;;;;;;;;5057985;28;20180;-74
2021/06/18 14:21:27;;;;;;;12.25;7.80;;;;;;;;;;5054640;28;20204;-74